Terminal Aerodrome Forecast
Issued by NWS Wilmington, OH

Home | Current Version | Previous Version | Graphics & Text | Print | Product List | Glossary Off
Versions: 1 2 3 4 5 6 7 8 9 10 11 12 13 14 15 16 17 18 19 20 21 22 23 24 25 26 27 28

000
FTUS41 KILN 021733
TAFCMH
TAF
KCMH 021733Z 0218/0318 25010G17KT P6SM SCT050
     FM030000 18006KT P6SM SCT200
     FM031100 19007KT P6SM VCTS BKN040CB
     FM031400 24012KT P6SM VCTS BKN040CB=

USA.gov is the U.S. government's official web portal to all federal, state and local government web resources and services.